Lowest pressure

Not for real navigation. The accuracy of this data is not assured See disclaimer for more information



ICAO NAME COUNTRY WIND Kt GUST Kt VIS m TEMP/DEW C BARO METAR
KBOU 0 0 9999 22/6 24.70 KBOU 271320Z AUTO 00000KT 2000 HZ CAVOK 22/06 A2470 RMK A02
NZSP Amundsen-Scott South Pole Stat Antarctica 15 0 2400 -52/0 28.72 NZSP 271150Z 04015KT 2400 BLSN FEW010 BKN060 M52/ A2872 RMK CLN AIR 02014G19KT ALL WNDS GRID
NZCM Williams Field Antarctica 3 0 9999 -18/-22 29.05 NZCM 271155Z VRB03KT 9999 FEW060 M18/M22 A2905 RMK SLP843
OPMT Multan Pakistan 6 0 5000 44/18 29.38 OPMT 271300Z 09006KT 5000 HZ NSC 44/18 Q0995 NOSIG
VEKO 10 0 6000 42/19 29.41 VEKO 271200Z 07010KT 6000 NSC 42/19 Q0996

Show more